sensor_id;sensor_type;location;lat;lon;timestamp;pressure;altitude;pressure_sealevel;temperature;humidity
9235;BME280;4652;42.716;23.218;2023-03-11T00:00:17;93097.50;;;9.54;100.00
9235;BME280;4652;42.716;23.218;2023-03-11T00:07:00;93106.53;;;9.58;100.00
9235;BME280;4652;42.716;23.218;2023-03-11T00:13:44;93077.81;;;9.71;100.00
9235;BME280;4652;42.716;23.218;2023-03-11T00:20:28;93069.06;;;9.82;100.00
9235;BME280;4652;42.716;23.218;2023-03-11T00:27:10;93065.75;;;9.97;100.00
9235;BME280;4652;42.716;23.218;2023-03-11T00:33:54;93040.41;;;10.07;100.00
9235;BME280;4652;42.716;23.218;2023-03-11T00:40:38;93036.84;;;10.36;100.00
9235;BME280;4652;42.716;23.218;2023-03-11T00:47:20;93021.88;;;10.05;100.00
9235;BME280;4652;42.716;23.218;2023-03-11T00:54:03;93019.41;;;10.00;100.00
9235;BME280;4652;42.716;23.218;2023-03-11T01:00:45;93001.47;;;9.72;100.00
9235;BME280;4652;42.716;23.218;2023-03-11T01:07:28;93003.09;;;9.64;100.00
9235;BME280;4652;42.716;23.218;2023-03-11T01:14:12;92977.88;;;9.36;100.00
9235;BME280;4652;42.716;23.218;2023-03-11T01:20:54;92939.84;;;9.25;100.00
9235;BME280;4652;42.716;23.218;2023-03-11T01:27:36;92958.38;;;9.39;100.00
9235;BME280;4652;42.716;23.218;2023-03-11T01:34:19;92958.47;;;9.51;100.00
9235;BME280;4652;42.716;23.218;2023-03-11T01:41:02;92946.88;;;9.59;100.00
9235;BME280;4652;42.716;23.218;2023-03-11T01:47:44;92976.22;;;9.64;100.00
9235;BME280;4652;42.716;23.218;2023-03-11T01:54:30;92973.34;;;9.49;100.00
9235;BME280;4652;42.716;23.218;2023-03-11T02:25:26;93035.53;;;9.59;100.00
9235;BME280;4652;42.716;23.218;2023-03-11T14:31:58;92995.78;;;12.64;100.00
9235;BME280;4652;42.716;23.218;2023-03-11T14:38:42;93010.41;;;12.63;100.00
9235;BME280;4652;42.716;23.218;2023-03-11T14:45:27;93019.88;;;12.57;100.00
9235;BME280;4652;42.716;23.218;2023-03-11T14:52:17;93041.44;;;12.41;100.00
9235;BME280;4652;42.716;23.218;2023-03-11T14:59:02;93060.03;;;11.54;100.00
9235;BME280;4652;42.716;23.218;2023-03-11T15:05:49;93087.38;;;11.08;100.00
9235;BME280;4652;42.716;23.218;2023-03-11T15:12:38;93114.41;;;10.87;100.00
9235;BME280;4652;42.716;23.218;2023-03-11T15:19:31;93107.19;;;10.79;100.00
9235;BME280;4652;42.716;23.218;2023-03-11T15:26:18;93118.63;;;10.76;100.00
9235;BME280;4652;42.716;23.218;2023-03-11T15:33:19;93163.75;;;10.91;100.00
9235;BME280;4652;42.716;23.218;2023-03-11T15:40:10;93189.41;;;10.35;100.00
9235;BME280;4652;42.716;23.218;2023-03-11T15:46:53;93200.56;;;9.87;100.00
9235;BME280;4652;42.716;23.218;2023-03-11T15:53:37;93215.88;;;9.03;100.00
9235;BME280;4652;42.716;23.218;2023-03-11T16:00:21;93243.53;;;8.77;100.00
9235;BME280;4652;42.716;23.218;2023-03-11T16:07:03;93239.56;;;8.58;100.00
9235;BME280;4652;42.716;23.218;2023-03-11T16:13:48;93283.47;;;8.14;100.00
9235;BME280;4652;42.716;23.218;2023-03-11T16:20:32;93296.34;;;7.95;100.00
9235;BME280;4652;42.716;23.218;2023-03-11T16:27:16;93321.63;;;7.49;100.00
9235;BME280;4652;42.716;23.218;2023-03-11T16:33:59;93319.94;;;6.87;100.00
9235;BME280;4652;42.716;23.218;2023-03-11T16:40:41;93338.63;;;6.65;100.00
9235;BME280;4652;42.716;23.218;2023-03-11T16:47:24;93390.81;;;6.76;100.00
9235;BME280;4652;42.716;23.218;2023-03-11T16:54:07;93407.44;;;6.86;100.00
9235;BME280;4652;42.716;23.218;2023-03-11T17:00:49;93409.31;;;6.86;100.00
9235;BME280;4652;42.716;23.218;2023-03-11T17:07:32;93427.28;;;6.58;100.00
9235;BME280;4652;42.716;23.218;2023-03-11T17:14:16;93435.28;;;6.17;100.00
9235;BME280;4652;42.716;23.218;2023-03-11T17:20:58;93478.47;;;6.38;100.00
9235;BME280;4652;42.716;23.218;2023-03-11T17:27:41;93493.72;;;6.24;100.00
9235;BME280;4652;42.716;23.218;2023-03-11T17:34:25;93488.50;;;6.00;100.00
9235;BME280;4652;42.716;23.218;2023-03-11T17:41:08;93520.16;;;5.93;100.00
9235;BME280;4652;42.716;23.218;2023-03-11T17:47:52;93542.59;;;5.73;100.00
9235;BME280;4652;42.716;23.218;2023-03-11T17:54:36;93538.63;;;5.33;100.00
9235;BME280;4652;42.716;23.218;2023-03-11T18:01:21;93537.25;;;5.36;100.00
9235;BME280;4652;42.716;23.218;2023-03-11T18:08:03;93553.63;;;5.29;100.00
9235;BME280;4652;42.716;23.218;2023-03-11T18:14:47;93585.03;;;5.56;100.00
9235;BME280;4652;42.716;23.218;2023-03-11T18:21:30;93604.50;;;5.75;100.00
9235;BME280;4652;42.716;23.218;2023-03-11T18:28:12;93620.50;;;5.99;100.00
9235;BME280;4652;42.716;23.218;2023-03-11T18:34:56;93608.28;;;6.12;100.00
9235;BME280;4652;42.716;23.218;2023-03-11T18:41:38;93630.47;;;6.12;100.00
9235;BME280;4652;42.716;23.218;2023-03-11T18:48:22;93619.84;;;5.88;100.00
9235;BME280;4652;42.716;23.218;2023-03-11T18:55:06;93621.03;;;5.59;100.00
9235;BME280;4652;42.716;23.218;2023-03-11T19:01:49;93609.91;;;5.52;100.00
9235;BME280;4652;42.716;23.218;2023-03-11T19:08:32;93652.34;;;5.53;100.00
9235;BME280;4652;42.716;23.218;2023-03-11T19:15:16;93647.66;;;5.21;100.00
9235;BME280;4652;42.716;23.218;2023-03-11T19:21:58;93654.38;;;5.19;100.00
9235;BME280;4652;42.716;23.218;2023-03-11T19:28:40;93676.91;;;5.08;100.00
9235;BME280;4652;42.716;23.218;2023-03-11T19:35:24;93695.50;;;5.13;100.00
9235;BME280;4652;42.716;23.218;2023-03-11T19:42:06;93707.50;;;5.15;100.00
9235;BME280;4652;42.716;23.218;2023-03-11T19:48:49;93704.19;;;5.00;100.00
9235;BME280;4652;42.716;23.218;2023-03-11T19:55:41;93694.53;;;5.04;100.00
9235;BME280;4652;42.716;23.218;2023-03-11T20:08:12;93730.81;;;5.05;100.00
9235;BME280;4652;42.716;23.218;2023-03-11T20:14:55;93738.47;;;5.11;100.00
9235;BME280;4652;42.716;23.218;2023-03-11T20:21:37;93771.91;;;5.32;100.00
9235;BME280;4652;42.716;23.218;2023-03-11T20:28:21;93799.03;;;5.40;100.00
9235;BME280;4652;42.716;23.218;2023-03-11T20:35:05;93788.84;;;5.47;100.00
9235;BME280;4652;42.716;23.218;2023-03-11T20:41:47;93791.91;;;5.59;100.00
9235;BME280;4652;42.716;23.218;2023-03-11T20:48:31;93765.94;;;5.41;100.00
9235;BME280;4652;42.716;23.218;2023-03-11T20:55:13;93802.88;;;5.28;100.00
9235;BME280;4652;42.716;23.218;2023-03-11T21:01:55;93801.44;;;5.12;100.00
9235;BME280;4652;42.716;23.218;2023-03-11T21:08:39;93801.88;;;5.19;100.00
9235;BME280;4652;42.716;23.218;2023-03-11T21:15:21;93810.19;;;5.18;100.00
9235;BME280;4652;42.716;23.218;2023-03-11T21:22:03;93803.78;;;5.19;100.00
9235;BME280;4652;42.716;23.218;2023-03-11T21:28:47;93806.41;;;4.90;100.00
9235;BME280;4652;42.716;23.218;2023-03-11T21:35:30;93837.78;;;5.03;100.00
9235;BME280;4652;42.716;23.218;2023-03-11T21:42:12;93827.19;;;4.93;100.00
9235;BME280;4652;42.716;23.218;2023-03-11T21:48:57;93844.94;;;4.74;100.00
9235;BME280;4652;42.716;23.218;2023-03-11T21:55:41;93853.78;;;4.64;100.00
9235;BME280;4652;42.716;23.218;2023-03-11T22:02:26;93821.63;;;4.46;100.00
9235;BME280;4652;42.716;23.218;2023-03-11T22:09:10;93851.25;;;4.44;100.00
9235;BME280;4652;42.716;23.218;2023-03-11T22:15:52;93860.03;;;4.40;100.00
9235;BME280;4652;42.716;23.218;2023-03-11T22:22:35;93873.94;;;4.32;100.00
9235;BME280;4652;42.716;23.218;2023-03-11T22:29:18;93864.22;;;3.97;100.00
9235;BME280;4652;42.716;23.218;2023-03-11T22:36:01;93905.50;;;3.94;100.00
9235;BME280;4652;42.716;23.218;2023-03-11T22:42:44;93914.63;;;3.63;100.00
9235;BME280;4652;42.716;23.218;2023-03-11T22:49:28;93905.84;;;3.32;100.00
9235;BME280;4652;42.716;23.218;2023-03-11T22:56:12;93931.13;;;3.40;100.00
9235;BME280;4652;42.716;23.218;2023-03-11T23:02:55;93929.00;;;3.22;100.00
9235;BME280;4652;42.716;23.218;2023-03-11T23:09:38;93941.50;;;3.21;100.00
